Time;durP1;ratioP1;P1;durP2;ratioP2;P2;SDS_P1;SDS_P2;PMS_P1;PMS_P2;Temp;Humidity;BMP_temperature;BMP_pressure;BME280_temperature;BME280_humidity;BME280_pressure;Samples;Min_cycle;Max_cycle;Signal;HPM_P1;HPM_P2
2022/10/13 00:00:26;;;;;;;35.55;14.90;;;12.50;99.90;;;;;;5100334;28;20522;-74
2022/10/13 00:02:53;;;;;;;29.65;15.15;;;12.40;99.90;;;;;;5106239;28;20051;-74
2022/10/13 00:05:19;;;;;;;34.40;15.68;;;12.50;99.90;;;;;;5104461;28;20059;-74
2022/10/13 00:07:44;;;;;;;29.33;14.93;;;12.50;99.90;;;;;;5089087;28;20028;-75
2022/10/13 00:10:10;;;;;;;29.73;15.02;;;12.50;99.90;;;;;;5103158;28;20023;-74
2022/10/13 00:12:37;;;;;;;29.23;16.02;;;12.50;99.90;;;;;;5103890;28;20522;-74
2022/10/13 00:15:05;;;;;;;31.38;16.45;;;12.50;99.90;;;;;;5101879;28;20016;-74
2022/10/13 00:17:30;;;;;;;31.50;15.73;;;12.50;99.90;;;;;;5095147;28;20020;-75
2022/10/13 00:19:56;;;;;;;32.58;16.65;;;12.50;99.90;;;;;;5112578;28;20031;-74
2022/10/13 00:22:22;;;;;;;30.58;15.95;;;12.50;99.90;;;;;;5103295;28;20027;-74
2022/10/13 00:24:51;;;;;;;35.13;17.25;;;12.50;99.90;;;;;;5105054;28;20030;-74
2022/10/13 00:27:17;;;;;;;34.88;17.92;;;12.50;99.90;;;;;;5111735;28;20421;-74
2022/10/13 00:29:42;;;;;;;30.08;16.48;;;12.50;99.90;;;;;;5100381;28;20017;-74
2022/10/13 00:32:08;;;;;;;38.63;17.70;;;12.50;99.90;;;;;;5094747;28;20068;-74
2022/10/13 00:34:36;;;;;;;32.28;16.60;;;12.50;99.90;;;;;;5109888;28;20023;-74
2022/10/13 00:37:01;;;;;;;38.72;18.20;;;12.50;99.90;;;;;;5111117;28;20024;-74
2022/10/13 00:39:27;;;;;;;36.45;17.90;;;12.60;99.90;;;;;;5106949;28;20058;-74
2022/10/13 00:41:53;;;;;;;31.33;17.63;;;12.60;99.90;;;;;;5108132;28;20486;-74
2022/10/13 00:45:10;;;;;;;33.97;18.73;;;12.60;99.90;;;;;;5108141;28;20016;-74
2022/10/13 00:47:40;;;;;;;34.65;18.67;;;12.60;99.90;;;;;;5050771;28;20051;-74
2022/10/13 00:50:11;;;;;;;33.95;17.63;;;12.60;99.90;;;;;;5110733;28;20403;-73
2022/10/13 00:52:40;;;;;;;37.90;19.17;;;12.60;99.90;;;;;;5092545;28;20019;-74
2022/10/13 00:55:08;;;;;;;38.53;19.90;;;12.60;99.90;;;;;;5101948;28;20043;-75
2022/10/13 00:57:37;;;;;;;35.13;19.58;;;12.60;99.90;;;;;;5110065;28;20127;-74
2022/10/13 01:00:04;;;;;;;36.35;21.05;;;12.60;99.90;;;;;;5110105;28;20027;-74
2022/10/13 01:02:32;;;;;;;41.70;22.67;;;12.60;99.90;;;;;;5101588;28;20027;-73
2022/10/13 01:04:58;;;;;;;36.63;21.35;;;12.70;99.90;;;;;;5107303;28;20035;-74
2022/10/13 01:07:24;;;;;;;40.70;20.73;;;12.60;99.90;;;;;;5110697;28;20107;-74
2022/10/13 01:09:50;;;;;;;34.00;20.10;;;12.60;99.90;;;;;;5110378;28;20114;-74
2022/10/13 01:12:22;;;;;;;39.03;20.00;;;12.70;99.90;;;;;;5096246;28;20024;-74
2022/10/13 01:15:01;;;;;;;36.50;19.50;;;12.70;99.90;;;;;;5111446;28;20380;-74
2022/10/13 01:17:33;;;;;;;39.03;19.98;;;12.70;99.90;;;;;;5109382;28;20027;-74
2022/10/13 01:20:23;;;;;;;39.08;18.75;;;12.70;99.90;;;;;;5084699;28;20062;-74
2022/10/13 01:23:11;;;;;;;39.30;19.75;;;12.70;99.90;;;;;;5107397;28;20024;-73
2022/10/13 01:25:54;;;;;;;37.95;19.83;;;12.70;99.90;;;;;;5071733;28;20107;-73
2022/10/13 01:28:41;;;;;;;40.25;20.50;;;12.70;99.90;;;;;;5089895;28;20024;-76
2022/10/13 01:31:21;;;;;;;35.58;19.40;;;12.70;99.90;;;;;;5097055;28;20055;-74
2022/10/13 01:34:07;;;;;;;31.23;17.90;;;12.70;99.90;;;;;;5096234;28;20495;-74
2022/10/13 01:36:36;;;;;;;34.83;19.23;;;12.70;99.90;;;;;;5101781;28;20016;-74
2022/10/13 01:39:06;;;;;;;42.08;18.73;;;12.70;99.90;;;;;;5100203;28;20043;-73
2022/10/13 01:41:39;;;;;;;37.15;20.00;;;12.80;99.90;;;;;;5071391;28;20135;-74
2022/10/13 01:44:14;;;;;;;38.15;19.80;;;12.80;99.90;;;;;;5100097;28;20022;-73
2022/10/13 01:46:41;;;;;;;36.28;19.60;;;12.80;99.90;;;;;;5095459;28;20035;-74
2022/10/13 01:49:12;;;;;;;37.50;20.38;;;12.80;99.90;;;;;;5109513;28;20019;-73
2022/10/13 01:51:39;;;;;;;41.92;20.83;;;12.90;99.90;;;;;;5109164;28;20026;-74
2022/10/13 01:54:05;;;;;;;45.58;23.02;;;12.90;99.90;;;;;;5093855;28;20024;-73
2022/10/13 01:56:31;;;;;;;46.92;23.75;;;12.90;99.90;;;;;;5105596;28;20399;-74
2022/10/13 01:59:01;;;;;;;41.55;24.92;;;12.90;99.90;;;;;;5089448;28;20077;-74
2022/10/13 02:01:54;;;;;;;47.15;23.98;;;12.90;99.90;;;;;;5103180;28;20089;-73
2022/10/13 02:04:46;;;;;;;40.28;22.58;;;13.00;99.90;;;;;;5104881;28;20027;-74
2022/10/13 02:07:31;;;;;;;41.55;21.67;;;13.00;99.90;;;;;;5099232;28;20039;-74
2022/10/13 02:10:10;;;;;;;39.60;21.30;;;13.00;99.90;;;;;;5108763;28;20043;-74
2022/10/13 02:12:44;;;;;;;41.17;20.88;;;13.00;99.90;;;;;;5109280;28;20379;-73
2022/10/13 02:15:15;;;;;;;38.63;20.15;;;13.00;99.90;;;;;;5111060;28;20035;-74
2022/10/13 02:17:41;;;;;;;40.28;21.17;;;13.00;99.90;;;;;;5092696;28;20027;-74
2022/10/13 02:20:08;;;;;;;41.90;21.73;;;13.00;99.90;;;;;;5089425;28;20664;-73
2022/10/13 02:22:39;;;;;;;42.08;21.65;;;13.00;99.90;;;;;;5101438;28;20026;-73
2022/10/13 02:25:06;;;;;;;47.35;22.67;;;13.00;99.90;;;;;;5094821;28;20027;-74
2022/10/13 02:27:32;;;;;;;45.63;22.20;;;13.00;99.90;;;;;;5089475;28;20144;-74
2022/10/13 02:29:57;;;;;;;44.42;23.73;;;13.00;99.90;;;;;;5093469;28;20063;-74
2022/10/13 02:32:23;;;;;;;43.17;24.33;;;13.00;99.90;;;;;;5103160;28;20019;-74
2022/10/13 02:34:50;;;;;;;47.47;23.88;;;13.00;99.90;;;;;;5109923;28;20088;-74
2022/10/13 02:37:16;;;;;;;46.63;23.90;;;13.00;99.90;;;;;;5094919;28;20107;-74
2022/10/13 02:39:42;;;;;;;46.17;24.58;;;13.10;99.90;;;;;;5110693;28;20073;-73
2022/10/13 02:42:07;;;;;;;45.97;24.67;;;13.10;99.90;;;;;;5095763;28;20020;-74
2022/10/13 02:44:33;;;;;;;45.92;24.52;;;13.10;99.90;;;;;;5088083;28;20024;-73
2022/10/13 02:46:59;;;;;;;47.40;24.77;;;13.10;99.90;;;;;;5089545;28;20048;-74
2022/10/13 02:49:25;;;;;;;44.90;22.67;;;13.10;99.90;;;;;;5092258;28;20024;-74
2022/10/13 02:51:52;;;;;;;37.83;21.38;;;13.10;99.90;;;;;;5108856;28;20379;-73
2022/10/13 02:54:17;;;;;;;44.35;21.30;;;13.10;99.90;;;;;;5092664;28;20024;-74
2022/10/13 02:56:43;;;;;;;40.40;20.23;;;13.10;99.90;;;;;;5071554;28;20031;-73
2022/10/13 02:59:09;;;;;;;38.25;19.48;;;13.10;99.90;;;;;;5089277;28;20024;-73
2022/10/13 03:01:39;;;;;;;40.03;19.30;;;13.10;99.90;;;;;;5108070;28;20452;-73
2022/10/13 03:04:08;;;;;;;36.72;18.25;;;13.10;99.90;;;;;;5109916;28;20028;-74
2022/10/13 03:06:34;;;;;;;34.85;17.52;;;13.10;99.90;;;;;;5104885;28;20055;-74
2022/10/13 03:09:00;;;;;;;37.88;18.75;;;13.10;99.90;;;;;;5089735;28;20012;-73
2022/10/13 03:11:25;;;;;;;38.20;18.45;;;13.10;99.90;;;;;;5095433;28;20040;-74
2022/10/13 03:13:51;;;;;;;29.67;17.92;;;13.10;99.90;;;;;;5104606;28;20533;-73
2022/10/13 03:16:17;;;;;;;35.55;18.02;;;13.10;99.90;;;;;;5101543;28;20024;-74
2022/10/13 03:18:42;;;;;;;33.45;17.98;;;13.10;99.90;;;;;;5102729;28;20028;-74
2022/10/13 03:21:09;;;;;;;35.72;18.77;;;13.10;99.90;;;;;;5108428;28;20020;-73
2022/10/13 03:23:34;;;;;;;34.63;18.35;;;13.10;99.90;;;;;;5090966;28;20016;-74
2022/10/13 03:26:00;;;;;;;36.22;19.40;;;13.10;99.90;;;;;;5112867;28;20027;-73
2022/10/13 03:28:26;;;;;;;35.70;19.80;;;13.10;99.90;;;;;;5097810;28;20104;-74
2022/10/13 03:34:16;;;;;;;35.58;19.17;;;13.10;99.90;;;;;;5096296;28;20119;-73
2022/10/13 03:36:42;;;;;;;45.72;19.75;;;13.10;99.90;;;;;;5092305;28;20039;-73
2022/10/13 03:39:07;;;;;;;38.97;20.27;;;13.10;99.90;;;;;;5092562;28;20266;-74
2022/10/13 03:41:33;;;;;;;35.05;19.80;;;13.20;99.90;;;;;;5094565;28;20054;-74
2022/10/13 03:43:58;;;;;;;38.20;20.58;;;13.10;99.90;;;;;;5106968;28;20020;-73
2022/10/13 03:46:27;;;;;;;44.80;20.70;;;13.10;99.90;;;;;;5102479;28;20251;-74
2022/10/13 03:48:53;;;;;;;41.53;20.30;;;13.10;99.90;;;;;;5110302;28;20042;-74
2022/10/13 03:51:20;;;;;;;43.85;20.50;;;13.10;99.90;;;;;;5092575;28;20028;-74
2022/10/13 03:53:47;;;;;;;37.28;20.83;;;13.10;99.90;;;;;;5107077;28;20045;-74
2022/10/13 03:56:23;;;;;;;50.70;21.70;;;13.20;99.90;;;;;;5093710;28;20035;-73
2022/10/13 03:58:53;;;;;;;37.58;20.77;;;13.20;99.90;;;;;;5110540;28;20086;-74
2022/10/13 04:01:21;;;;;;;44.00;21.25;;;13.20;99.90;;;;;;5111640;28;20047;-73
2022/10/13 04:03:46;;;;;;;40.95;20.90;;;13.20;99.90;;;;;;5098425;28;20070;-74
2022/10/13 04:06:12;;;;;;;42.75;21.17;;;13.20;99.90;;;;;;5106540;28;20028;-74
2022/10/13 04:08:38;;;;;;;46.85;20.73;;;13.20;99.90;;;;;;5094223;28;20020;-74
2022/10/13 04:11:06;;;;;;;42.17;21.27;;;13.20;99.90;;;;;;5091017;28;20115;-73
2022/10/13 04:13:32;;;;;;;43.08;21.27;;;13.20;99.90;;;;;;5090227;28;20043;-74
2022/10/13 04:16:24;;;;;;;47.30;21.55;;;13.20;99.90;;;;;;5110730;28;20059;-73
2022/10/13 04:18:56;;;;;;;45.40;21.52;;;13.20;99.90;;;;;;5097137;28;20116;-74
2022/10/13 04:21:22;;;;;;;41.35;21.95;;;13.30;99.90;;;;;;5112418;28;20472;-74
2022/10/13 04:23:48;;;;;;;44.50;21.17;;;13.20;99.90;;;;;;5111568;28;20049;-74
2022/10/13 04:26:17;;;;;;;45.75;22.08;;;13.30;99.90;;;;;;5112020;28;20023;-74
2022/10/13 04:28:43;;;;;;;49.28;23.38;;;13.30;99.90;;;;;;5090517;28;20483;-73
2022/10/13 04:31:09;;;;;;;44.50;22.48;;;13.30;99.90;;;;;;5103549;28;20015;-72
2022/10/13 04:33:35;;;;;;;41.65;22.58;;;13.30;99.90;;;;;;5110188;28;20030;-72
2022/10/13 04:36:05;;;;;;;44.15;21.95;;;13.20;99.90;;;;;;5104452;28;20067;-73
2022/10/13 04:38:31;;;;;;;41.92;22.65;;;13.30;99.90;;;;;;5091555;28;20072;-75
2022/10/13 04:40:57;;;;;;;45.50;22.42;;;13.30;99.90;;;;;;5116696;28;20035;-73
2022/10/13 04:43:22;;;;;;;42.53;21.40;;;13.30;99.90;;;;;;5118842;28;20055;-73
2022/10/13 04:45:48;;;;;;;40.88;20.85;;;13.30;99.90;;;;;;5113159;28;20091;-73
2022/10/13 04:48:14;;;;;;;41.55;21.30;;;13.30;99.90;;;;;;5103041;28;20473;-72
2022/10/13 04:50:40;;;;;;;48.33;21.52;;;13.30;99.90;;;;;;5113060;28;20047;-72
2022/10/13 04:53:05;;;;;;;44.00;20.90;;;13.30;99.90;;;;;;5117173;28;20024;-72
2022/10/13 04:55:34;;;;;;;38.70;20.80;;;13.30;99.90;;;;;;5099683;28;20482;-75
2022/10/13 04:58:00;;;;;;;44.97;21.65;;;13.30;99.90;;;;;;5086120;28;20084;-72
2022/10/13 05:00:26;;;;;;;42.70;21.23;;;13.30;99.90;;;;;;5098474;28;20036;-72
2022/10/13 05:02:51;;;;;;;40.72;20.20;;;13.30;99.90;;;;;;5092288;28;20047;-73
2022/10/13 05:05:17;;;;;;;41.70;21.35;;;13.30;99.90;;;;;;5094728;28;20028;-73
2022/10/13 05:07:42;;;;;;;43.58;20.77;;;13.30;99.90;;;;;;5113586;28;20034;-72
2022/10/13 05:10:08;;;;;;;40.65;20.55;;;13.30;99.90;;;;;;5115783;28;20020;-72
2022/10/13 05:12:34;;;;;;;40.35;20.98;;;13.30;99.90;;;;;;5096969;28;20020;-71
2022/10/13 05:15:00;;;;;;;42.40;20.92;;;13.30;99.90;;;;;;5113420;28;20047;-72
2022/10/13 05:17:27;;;;;;;39.65;19.77;;;13.30;99.90;;;;;;5105106;28;20028;-72
2022/10/13 05:19:53;;;;;;;44.75;19.88;;;13.30;99.90;;;;;;5095092;28;20038;-72
2022/10/13 05:22:20;;;;;;;38.95;20.25;;;13.30;99.90;;;;;;5113183;28;20102;-73
2022/10/13 05:24:45;;;;;;;43.67;20.30;;;13.30;99.90;;;;;;5093401;28;20023;-72
2022/10/13 05:27:12;;;;;;;43.08;20.25;;;13.30;99.90;;;;;;5114705;28;20027;-72
2022/10/13 05:29:38;;;;;;;42.65;21.60;;;13.30;99.90;;;;;;5114796;28;20024;-73
2022/10/13 05:32:05;;;;;;;48.60;21.92;;;13.30;99.90;;;;;;5108076;28;20507;-72
2022/10/13 05:34:31;;;;;;;49.70;22.30;;;13.30;99.90;;;;;;5113121;28;20038;-72
2022/10/13 05:36:58;;;;;;;47.20;21.67;;;13.40;99.90;;;;;;5094329;28;20028;-73
2022/10/13 05:39:24;;;;;;;39.72;21.52;;;13.40;99.90;;;;;;5107992;28;20039;-72
2022/10/13 05:41:49;;;;;;;39.30;20.90;;;13.40;99.90;;;;;;5102531;28;20031;-74
2022/10/13 05:44:16;;;;;;;52.55;21.02;;;13.40;99.90;;;;;;5113229;28;20098;-73
2022/10/13 05:46:42;;;;;;;43.83;21.33;;;13.40;99.90;;;;;;5089420;28;20065;-72
2022/10/13 05:49:07;;;;;;;38.30;20.70;;;13.40;99.90;;;;;;5090124;28;20051;-73
2022/10/13 05:51:38;;;;;;;48.42;20.55;;;13.40;99.90;;;;;;5096045;28;20110;-72
2022/10/13 05:54:11;;;;;;;41.33;21.35;;;13.40;99.90;;;;;;5104425;28;20058;-73
2022/10/13 05:56:47;;;;;;;44.25;21.50;;;13.40;99.90;;;;;;5087961;28;20357;-71
2022/10/13 05:59:17;;;;;;;42.92;22.02;;;13.40;99.90;;;;;;5092910;28;20459;-71
2022/10/13 06:01:43;;;;;;;45.80;22.77;;;13.40;99.90;;;;;;5106904;28;20024;-71
2022/10/13 06:04:20;;;;;;;41.78;21.45;;;13.40;99.90;;;;;;5110572;28;20024;-71
2022/10/13 06:06:47;;;;;;;39.05;21.83;;;13.40;99.90;;;;;;5093545;28;20452;-71
2022/10/13 06:09:13;;;;;;;44.53;22.48;;;13.40;99.90;;;;;;5093156;28;20070;-70
2022/10/13 06:11:38;;;;;;;39.63;22.55;;;13.40;99.90;;;;;;5111869;28;20051;-71
2022/10/13 06:14:04;;;;;;;43.72;22.05;;;13.40;99.90;;;;;;5100959;28;20027;-71
2022/10/13 06:16:29;;;;;;;42.63;21.92;;;13.40;99.90;;;;;;5109587;28;20076;-71
2022/10/13 06:18:55;;;;;;;46.88;22.65;;;13.40;99.90;;;;;;5109759;28;20051;-71
2022/10/13 06:21:21;;;;;;;42.45;23.85;;;13.40;99.90;;;;;;5102538;28;20131;-71
2022/10/13 06:23:46;;;;;;;44.60;22.95;;;13.40;99.90;;;;;;5088985;28;20031;-71
2022/10/13 06:26:12;;;;;;;49.58;22.73;;;13.40;99.90;;;;;;5101720;28;20592;-71
2022/10/13 06:28:37;;;;;;;41.22;23.42;;;13.40;99.90;;;;;;5106716;28;20034;-73
2022/10/13 06:31:06;;;;;;;42.13;24.27;;;13.40;99.90;;;;;;5104040;28;20023;-72
2022/10/13 06:33:32;;;;;;;48.97;25.55;;;13.50;99.90;;;;;;5104850;28;20115;-71
2022/10/13 06:36:03;;;;;;;46.08;25.80;;;13.50;99.90;;;;;;5101815;28;20032;-71
2022/10/13 06:38:29;;;;;;;40.80;25.73;;;13.50;99.90;;;;;;5106252;28;20038;-72
2022/10/13 06:40:58;;;;;;;43.10;26.52;;;13.50;99.90;;;;;;5107452;28;20015;-71
2022/10/13 06:43:24;;;;;;;40.58;25.63;;;13.50;99.90;;;;;;5105382;28;20028;-71
2022/10/13 06:45:49;;;;;;;45.17;25.77;;;13.50;99.90;;;;;;5097432;28;20334;-73
2022/10/13 06:48:15;;;;;;;47.25;27.67;;;13.50;99.90;;;;;;5102840;28;20040;-73
2022/10/13 06:50:41;;;;;;;48.30;28.77;;;13.50;99.90;;;;;;5102072;28;20018;-72
2022/10/13 06:53:06;;;;;;;47.42;27.58;;;13.50;99.90;;;;;;5106706;28;20012;-72
2022/10/13 06:55:32;;;;;;;46.08;25.63;;;13.50;99.90;;;;;;5104681;28;20059;-72
2022/10/13 06:57:58;;;;;;;42.72;25.65;;;13.50;99.90;;;;;;5107821;28;20035;-71
2022/10/13 07:00:23;;;;;;;45.92;26.63;;;13.60;99.90;;;;;;5098228;28;20025;-71
2022/10/13 07:02:51;;;;;;;51.10;26.85;;;13.60;99.90;;;;;;5100287;28;20514;-73
2022/10/13 07:05:17;;;;;;;42.88;25.13;;;13.60;99.90;;;;;;5109566;28;20541;-71
2022/10/13 07:07:42;;;;;;;41.60;25.05;;;13.60;99.90;;;;;;5109305;28;20134;-72
2022/10/13 07:10:09;;;;;;;45.55;26.35;;;13.60;99.90;;;;;;5106367;28;20208;-71
2022/10/13 07:12:34;;;;;;;43.28;25.02;;;13.60;99.90;;;;;;5110000;28;20012;-72
2022/10/13 07:15:00;;;;;;;39.65;24.92;;;13.60;99.90;;;;;;5111692;28;20023;-70
2022/10/13 07:17:25;;;;;;;37.33;23.55;;;13.60;99.90;;;;;;5101447;28;20082;-71
2022/10/13 07:19:51;;;;;;;35.35;23.08;;;13.60;99.90;;;;;;5094863;28;20036;-71
2022/10/13 07:22:17;;;;;;;43.67;22.23;;;13.60;99.90;;;;;;5105996;28;20418;-71
2022/10/13 07:24:42;;;;;;;35.47;21.27;;;13.70;99.90;;;;;;5091877;28;20024;-72
2022/10/13 07:27:08;;;;;;;37.33;22.20;;;13.60;99.90;;;;;;5094177;28;20511;-70
2022/10/13 07:29:33;;;;;;;37.28;21.15;;;13.70;99.90;;;;;;5095070;28;20084;-70
2022/10/13 07:31:59;;;;;;;37.35;21.00;;;13.70;99.90;;;;;;5108989;28;20089;-70
2022/10/13 07:34:24;;;;;;;35.08;20.45;;;13.70;99.90;;;;;;5111775;28;20031;-72
2022/10/13 07:36:50;;;;;;;36.90;19.20;;;13.70;99.90;;;;;;5111226;28;20387;-71
2022/10/13 07:39:16;;;;;;;30.40;19.77;;;13.70;99.90;;;;;;5111928;28;20114;-71
2022/10/13 07:41:41;;;;;;;33.58;18.35;;;13.70;99.90;;;;;;5101406;28;20490;-71
2022/10/13 07:44:07;;;;;;;33.10;17.85;;;13.70;99.90;;;;;;5094463;28;20399;-71
2022/10/13 07:46:32;;;;;;;29.27;16.92;;;13.70;99.90;;;;;;5102426;28;20547;-72
2022/10/13 07:48:58;;;;;;;33.25;16.73;;;13.70;99.90;;;;;;5109829;28;20051;-72
2022/10/13 07:51:24;;;;;;;33.25;16.73;;;13.70;99.90;;;;;;5095633;28;20018;-71
2022/10/13 07:53:49;;;;;;;30.38;16.48;;;13.70;99.90;;;;;;5101566;28;20103;-71
2022/10/13 07:56:15;;;;;;;34.40;17.67;;;13.80;99.90;;;;;;5095721;28;20016;-71
2022/10/13 07:58:44;;;;;;;27.42;17.30;;;13.80;99.90;;;;;;5096086;28;20107;-71
2022/10/13 08:01:10;;;;;;;34.95;18.40;;;13.80;99.90;;;;;;5096353;28;20060;-71
2022/10/13 08:03:35;;;;;;;38.17;19.25;;;13.80;99.90;;;;;;5095439;28;20055;-71
2022/10/13 08:06:03;;;;;;;36.50;19.85;;;13.80;99.90;;;;;;5098891;28;20020;-71
2022/10/13 08:08:30;;;;;;;36.17;20.08;;;13.80;99.90;;;;;;5094197;28;20361;-71
2022/10/13 08:11:05;;;;;;;35.33;19.88;;;13.90;99.90;;;;;;5101856;28;20024;-71
2022/10/13 08:13:31;;;;;;;39.10;19.33;;;13.90;99.90;;;;;;5101417;28;20043;-70
2022/10/13 08:16:00;;;;;;;33.03;19.77;;;13.90;99.90;;;;;;5108768;28;20076;-71
2022/10/13 08:18:26;;;;;;;33.00;19.15;;;13.90;99.90;;;;;;5104656;28;20055;-71
2022/10/13 08:20:51;;;;;;;31.95;19.52;;;13.90;99.90;;;;;;5093295;28;20495;-70
2022/10/13 08:23:17;;;;;;;31.98;19.55;;;13.90;99.90;;;;;;5097413;28;20112;-71
2022/10/13 08:25:43;;;;;;;36.67;19.33;;;13.90;99.90;;;;;;5109643;28;20034;-72
2022/10/13 08:28:21;;;;;;;29.40;18.45;;;14.00;99.90;;;;;;5097036;28;20038;-72
2022/10/13 08:30:47;;;;;;;40.10;19.33;;;14.00;99.90;;;;;;5111479;28;20356;-72
2022/10/13 08:33:13;;;;;;;32.22;19.10;;;14.00;99.90;;;;;;5111730;28;20064;-73
2022/10/13 08:35:38;;;;;;;31.50;18.70;;;14.00;99.90;;;;;;5094713;28;20023;-71
2022/10/13 08:38:04;;;;;;;33.15;19.38;;;14.00;99.90;;;;;;5101502;28;20016;-71
2022/10/13 08:40:30;;;;;;;32.40;18.73;;;14.00;99.90;;;;;;5106918;28;20440;-71
2022/10/13 08:42:56;;;;;;;31.13;17.92;;;14.00;99.90;;;;;;5110660;28;20032;-71
2022/10/13 08:45:25;;;;;;;30.63;15.88;;;14.10;99.90;;;;;;5110577;28;20026;-71
2022/10/13 08:47:58;;;;;;;26.73;16.30;;;14.10;99.90;;;;;;5104280;28;20044;-71
2022/10/13 08:50:28;;;;;;;27.73;16.25;;;14.10;99.90;;;;;;5104949;28;20027;-72
2022/10/13 08:53:00;;;;;;;31.25;16.27;;;14.00;99.90;;;;;;5096599;28;20047;-72
2022/10/13 08:55:40;;;;;;;28.40;17.30;;;14.10;99.90;;;;;;5108963;28;20095;-72
2022/10/13 08:58:24;;;;;;;27.48;16.92;;;14.10;99.90;;;;;;5095313;28;20224;-71
2022/10/13 09:01:10;;;;;;;31.75;17.83;;;14.10;99.90;;;;;;5095836;28;20392;-72
2022/10/13 09:03:44;;;;;;;33.80;18.58;;;14.20;99.90;;;;;;5082849;28;20031;-71
2022/10/13 09:06:27;;;;;;;34.92;19.30;;;14.30;99.90;;;;;;5106173;28;20020;-71
2022/10/13 09:09:09;;;;;;;32.35;19.10;;;14.30;99.90;;;;;;5108467;28;20050;-72
2022/10/13 09:11:38;;;;;;;39.63;20.33;;;14.40;99.90;;;;;;5111568;28;20032;-71
2022/10/13 09:14:40;;;;;;;31.45;20.20;;;14.40;99.90;;;;;;5095161;28;20054;-71
2022/10/13 09:17:22;;;;;;;31.23;19.75;;;14.40;99.90;;;;;;5087554;28;20514;-72
2022/10/13 09:20:15;;;;;;;30.17;20.45;;;14.40;99.90;;;;;;5089677;28;20089;-72
2022/10/13 09:22:41;;;;;;;37.67;22.35;;;14.50;99.90;;;;;;5104234;28;20020;-71
2022/10/13 09:25:10;;;;;;;41.80;22.95;;;14.50;99.90;;;;;;5108271;28;20023;-72
2022/10/13 09:27:57;;;;;;;42.40;23.88;;;14.50;99.90;;;;;;5100162;28;20483;-71
2022/10/13 09:30:32;;;;;;;39.83;24.10;;;14.50;99.90;;;;;;5105048;28;20085;-72
2022/10/13 09:33:12;;;;;;;41.90;23.67;;;14.50;99.90;;;;;;5102514;28;20016;-71
2022/10/13 09:36:05;;;;;;;48.00;25.02;;;14.60;99.90;;;;;;5092480;28;20055;-71
2022/10/13 09:38:31;;;;;;;40.45;24.00;;;14.50;99.90;;;;;;5101630;28;20054;-74
2022/10/13 09:41:02;;;;;;;37.25;25.83;;;14.50;99.90;;;;;;5098891;28;20452;-71
2022/10/13 09:43:40;;;;;;;45.70;24.95;;;14.60;99.90;;;;;;5102713;28;20039;-72
2022/10/13 09:46:36;;;;;;;42.13;25.92;;;14.60;99.90;;;;;;5103353;28;20020;-71
2022/10/13 09:49:36;;;;;;;49.53;27.45;;;14.70;99.90;;;;;;5108939;28;20039;-71
2022/10/13 09:52:24;;;;;;;45.80;26.65;;;14.70;99.90;;;;;;5110867;28;20027;-71
2022/10/13 09:54:52;;;;;;;43.63;27.17;;;14.70;99.90;;;;;;5098341;28;20027;-71
2022/10/13 09:57:29;;;;;;;38.08;24.67;;;14.70;99.90;;;;;;5109810;28;20035;-71
2022/10/13 10:00:05;;;;;;;38.92;23.42;;;14.80;99.90;;;;;;5110544;28;20483;-73
2022/10/13 10:02:34;;;;;;;42.58;23.67;;;14.80;99.90;;;;;;5095544;28;20024;-72
2022/10/13 10:05:12;;;;;;;36.58;23.30;;;14.80;99.90;;;;;;5101632;28;20025;-73
2022/10/13 10:07:38;;;;;;;34.83;22.05;;;14.80;99.90;;;;;;5104308;28;20094;-73
2022/10/13 10:10:12;;;;;;;37.00;21.02;;;14.90;99.90;;;;;;5098730;28;20028;-72
2022/10/13 10:12:39;;;;;;;30.65;20.90;;;14.90;99.90;;;;;;5090263;28;20418;-72
2022/10/13 10:15:18;;;;;;;34.67;20.40;;;14.90;99.90;;;;;;5089717;28;20012;-73
2022/10/13 10:17:54;;;;;;;41.45;21.15;;;14.90;99.90;;;;;;5103795;28;20103;-72
2022/10/13 10:20:38;;;;;;;35.45;21.55;;;15.00;99.90;;;;;;5096634;28;20031;-72
2022/10/13 10:23:11;;;;;;;38.65;21.48;;;15.00;99.90;;;;;;5096348;28;20031;-72
2022/10/13 10:25:44;;;;;;;33.35;19.42;;;15.00;99.90;;;;;;5094969;28;20221;-72
2022/10/13 10:28:28;;;;;;;32.33;19.65;;;15.00;99.90;;;;;;5090942;28;20024;-72
2022/10/13 10:31:28;;;;;;;37.15;20.70;;;15.00;99.90;;;;;;5108445;28;20027;-73
2022/10/13 10:34:22;;;;;;;35.25;20.75;;;15.10;99.90;;;;;;5023847;28;20098;-72
2022/10/13 10:37:01;;;;;;;31.88;19.42;;;15.10;99.90;;;;;;5031131;28;20149;-73
2022/10/13 10:39:47;;;;;;;38.67;19.60;;;15.10;99.90;;;;;;5025446;28;20076;-72
2022/10/13 10:42:31;;;;;;;33.05;17.85;;;15.10;99.90;;;;;;5030251;28;20065;-72
2022/10/13 10:45:02;;;;;;;35.77;18.90;;;15.10;99.90;;;;;;5028396;28;20432;-73
2022/10/13 10:47:40;;;;;;;30.25;17.77;;;15.10;99.90;;;;;;5017414;28;20303;-72
2022/10/13 10:50:07;;;;;;;35.20;18.67;;;15.10;99.90;;;;;;5030913;28;20165;-72
2022/10/13 10:53:04;;;;;;;34.00;17.35;;;15.10;99.90;;;;;;5016892;28;20060;-72
2022/10/13 10:55:51;;;;;;;29.25;15.40;;;15.20;99.90;;;;;;5030860;28;20376;-72
2022/10/13 10:58:43;;;;;;;25.63;14.93;;;15.20;99.90;;;;;;5019731;28;20466;-72
2022/10/13 11:01:29;;;;;;;30.33;15.50;;;15.20;99.90;;;;;;5030383;28;20038;-69
2022/10/13 11:04:19;;;;;;;31.17;16.90;;;15.20;99.90;;;;;;5029837;28;20039;-72
2022/10/13 11:06:45;;;;;;;30.00;16.38;;;15.10;99.90;;;;;;5027140;28;20033;-71
2022/10/13 11:09:11;;;;;;;30.58;14.52;;;15.10;99.90;;;;;;5088474;28;20030;-70
2022/10/13 11:11:39;;;;;;;27.08;14.45;;;15.10;99.90;;;;;;5105254;28;20044;-71
2022/10/13 11:14:04;;;;;;;26.23;14.77;;;15.10;99.90;;;;;;5102837;28;20046;-72
2022/10/13 11:16:39;;;;;;;35.47;14.55;;;15.10;99.90;;;;;;5114982;28;20036;-71
2022/10/13 11:19:29;;;;;;;26.03;14.23;;;15.10;99.90;;;;;;5102921;28;20089;-71
2022/10/13 11:22:11;;;;;;;24.80;14.00;;;15.00;99.90;;;;;;5106487;28;20020;-71
2022/10/13 11:24:39;;;;;;;29.42;15.18;;;15.00;99.90;;;;;;5096577;28;20651;-71
2022/10/13 11:27:10;;;;;;;31.50;14.85;;;15.00;99.90;;;;;;5118091;28;20032;-71
2022/10/13 11:29:47;;;;;;;28.52;14.93;;;15.00;99.90;;;;;;5117944;28;20376;-71
2022/10/13 11:35:05;;;;;;;32.35;15.60;;;15.10;99.90;;;;;;5099734;28;20028;-71
2022/10/13 11:37:49;;;;;;;31.92;15.18;;;15.10;99.90;;;;;;5112861;28;20480;-71
2022/10/13 11:40:14;;;;;;;29.48;15.35;;;15.10;99.90;;;;;;5113037;28;20055;-71
2022/10/13 11:43:08;;;;;;;34.78;16.02;;;15.00;99.90;;;;;;5107022;28;20070;-71
2022/10/13 11:45:52;;;;;;;30.95;15.68;;;15.00;99.90;;;;;;5105976;28;20114;-71
2022/10/13 11:48:55;;;;;;;33.53;16.02;;;15.00;99.90;;;;;;5113141;28;20097;-71
2022/10/13 11:51:27;;;;;;;32.47;15.70;;;15.00;99.90;;;;;;5079643;28;20369;-71
2022/10/13 11:54:04;;;;;;;38.97;17.40;;;15.00;99.90;;;;;;5105183;28;20506;-71
2022/10/13 11:56:33;;;;;;;33.78;16.50;;;14.90;99.90;;;;;;5095802;28;20123;-71
2022/10/13 11:58:58;;;;;;;31.15;16.00;;;15.00;99.90;;;;;;5098743;28;20031;-72
2022/10/13 12:01:24;;;;;;;30.63;16.27;;;15.00;99.90;;;;;;5104542;28;20032;-72
2022/10/13 12:03:50;;;;;;;32.45;16.10;;;15.00;99.90;;;;;;5107335;28;20043;-72
2022/10/13 12:06:15;;;;;;;31.10;16.85;;;15.00;99.90;;;;;;5096723;28;20054;-71
2022/10/13 12:08:46;;;;;;;31.58;15.90;;;15.00;99.90;;;;;;5092808;28;20022;-71
2022/10/13 12:11:27;;;;;;;27.45;15.43;;;15.00;99.90;;;;;;5102521;28;20077;-72
2022/10/13 12:13:53;;;;;;;29.08;16.38;;;15.00;99.90;;;;;;5096035;28;20426;-72
2022/10/13 12:16:19;;;;;;;32.78;16.75;;;14.90;99.90;;;;;;5110093;28;20610;-72
2022/10/13 12:18:45;;;;;;;32.95;18.05;;;14.90;99.90;;;;;;5097594;28;20110;-71
2022/10/13 12:21:21;;;;;;;34.42;18.25;;;14.90;99.90;;;;;;5111266;28;20426;-72
2022/10/13 12:23:49;;;;;;;36.72;19.42;;;14.90;99.90;;;;;;5112352;28;20055;-71
2022/10/13 12:26:24;;;;;;;30.40;18.33;;;14.90;99.90;;;;;;5111416;28;20026;-71
2022/10/13 12:28:59;;;;;;;32.47;18.90;;;14.90;99.90;;;;;;5098570;28;20016;-71
2022/10/13 12:31:28;;;;;;;38.92;21.13;;;14.90;99.90;;;;;;5098492;28;20035;-71
2022/10/13 12:34:01;;;;;;;34.83;21.23;;;14.90;99.90;;;;;;5109987;28;20050;-73
2022/10/13 12:36:33;;;;;;;36.88;20.27;;;14.90;99.90;;;;;;5100435;28;20091;-72
2022/10/13 12:39:02;;;;;;;32.17;19.08;;;14.90;99.90;;;;;;5105995;28;20028;-74
2022/10/13 12:41:31;;;;;;;36.75;20.10;;;14.90;99.90;;;;;;5091071;28;20111;-72
2022/10/13 12:43:57;;;;;;;31.73;21.17;;;14.90;99.90;;;;;;5105706;28;20028;-72
2022/10/13 12:46:41;;;;;;;34.85;22.90;;;14.90;99.90;;;;;;5090858;28;20021;-72
2022/10/13 12:49:16;;;;;;;34.97;22.58;;;14.90;99.90;;;;;;5107263;28;20407;-73
2022/10/13 12:51:44;;;;;;;35.92;20.63;;;14.90;99.90;;;;;;5101061;28;20016;-72